Terminal Aerodrome Forecast
Issued by NWS

Home | Current Version | Previous Version | Graphics & Text | Print | Product List | Glossary On
Versions: 1 2 3 4 5 6 7 8 9 10 11 12 13 14 15 16 17 18 19 20 21 22
000
FTUS43 KGRB 230520
TAFCWA
TAF
KCWA 230520Z 2306/2406 03006KT P6SM VCSH SCT010 OVC025
      TEMPO 2306/2310 BKN010
     FM231000 07006KT P6SM OVC015
     FM231500 07008KT P6SM OVC025
     FM231800 08008KT P6SM OVC035
     FM232000 06009KT P6SM SCT040 BKN080
     FM232300 10006KT P6SM SCT030 BKN050
      AMD LTD TO CLD VIS AND WIND TIL 231100=

USA.gov is the U.S. government's official web portal to all federal, state and local government web resources and services.